Time;durP1;ratioP1;P1;durP2;ratioP2;P2;SDS_P1;SDS_P2;PMS_P1;PMS_P2;Temp;Humidity;BMP_temperature;BMP_pressure;BME280_temperature;BME280_humidity;BME280_pressure;Samples;Min_cycle;Max_cycle;Signal;HPM_P1;HPM_P2
2021/05/27 00:02:03;;;;;;;2.25;0.70;;;;;;;6.53;86.58;99421.59;2005585;80;27001;-71
2021/05/27 00:05:06;;;;;;;2.33;0.66;;;;;;;6.46;86.43;99430.06;2006490;80;20546;-71
2021/05/27 00:08:09;;;;;;;5.82;2.22;;;;;;;6.42;86.43;99428.31;2005977;80;20713;-71
2021/05/27 00:11:12;;;;;;;1.55;0.91;;;;;;;6.36;86.40;99429.97;2006590;80;20343;-71
2021/05/27 00:14:15;;;;;;;0.90;0.84;;;;;;;6.32;86.46;99435.09;2002709;80;20873;-71
2021/05/27 00:17:18;;;;;;;2.16;0.79;;;;;;;6.28;86.44;99443.59;2004723;78;50727;-71
2021/05/27 00:20:21;;;;;;;1.51;0.93;;;;;;;6.21;86.57;99440.06;2005896;80;20611;-71
2021/05/27 00:23:24;;;;;;;1.27;1.00;;;;;;;6.18;86.58;99447.78;2006461;80;20916;-71
2021/05/27 00:26:26;;;;;;;0.65;0.65;;;;;;;6.17;86.66;99447.75;2005968;80;20745;-71
2021/05/27 00:29:29;;;;;;;0.76;0.76;;;;;;;6.13;86.71;99448.56;2006505;80;20323;-71
2021/05/27 00:32:32;;;;;;;0.85;0.80;;;;;;;6.10;86.51;99445.91;2003026;78;20948;-71
2021/05/27 00:35:35;;;;;;;1.36;0.80;;;;;;;6.07;86.73;99447.59;2003690;80;20319;-71
2021/05/27 00:38:37;;;;;;;1.30;0.80;;;;;;;6.04;86.81;99457.88;2006900;80;20324;-71
2021/05/27 00:41:40;;;;;;;0.89;0.88;;;;;;;6.00;86.70;99452.66;2004703;80;20311;-71
2021/05/27 00:44:43;;;;;;;2.00;0.70;;;;;;;5.94;86.81;99450.88;2004171;80;20433;-71
2021/05/27 00:47:46;;;;;;;1.55;0.74;;;;;;;5.93;86.79;99456.00;2003950;78;22210;-71
2021/05/27 00:50:49;;;;;;;1.71;0.85;;;;;;;5.91;86.72;99452.50;2004591;80;20353;-71
2021/05/27 00:53:52;;;;;;;1.60;0.90;;;;;;;5.90;86.81;99455.94;2004508;80;20360;-71
2021/05/27 00:56:56;;;;;;;1.64;1.10;;;;;;;5.93;87.09;99454.31;2004572;80;20319;-71
2021/05/27 01:00:00;;;;;;;1.10;1.00;;;;;;;6.00;87.35;99462.97;2004901;80;20503;-71
2021/05/27 01:03:02;;;;;;;1.17;0.96;;;;;;;6.09;87.78;99467.38;2004531;78;20732;-71
2021/05/27 01:06:05;;;;;;;2.51;1.20;;;;;;;6.16;87.97;99458.91;2004060;80;20813;-71
2021/05/27 01:09:07;;;;;;;1.89;1.23;;;;;;;6.26;88.37;99471.06;2004627;80;20455;-71
2021/05/27 01:12:10;;;;;;;2.75;1.15;;;;;;;6.30;88.73;99470.28;2004486;80;20341;-71
2021/05/27 01:15:31;;;;;;;2.17;1.01;;;;;;;6.40;88.99;99471.28;2003481;80;20907;-71
2021/05/27 01:18:33;;;;;;;0.96;0.90;;;;;;;6.47;89.01;99463.66;2004494;80;20327;-71
2021/05/27 01:21:43;;;;;;;2.76;1.13;;;;;;;6.51;89.21;99472.28;2004832;80;20335;-71
2021/05/27 01:24:48;;;;;;;1.05;0.98;;;;;;;6.56;89.41;99476.66;2004211;80;20357;-71
2021/05/27 01:27:51;;;;;;;1.83;1.19;;;;;;;6.62;89.52;99476.72;2004252;80;20826;-71
2021/05/27 01:30:54;;;;;;;1.86;1.27;;;;;;;6.70;89.84;99482.00;2004655;78;21040;-71
2021/05/27 01:33:56;;;;;;;1.84;1.44;;;;;;;6.76;89.83;99479.47;2005947;80;20332;-71
2021/05/27 01:36:59;;;;;;;1.51;1.38;;;;;;;6.82;89.98;99481.25;2005838;80;20416;-71
2021/05/27 01:40:02;;;;;;;2.38;1.77;;;;;;;6.89;90.17;99480.50;2006353;80;20341;-71
2021/05/27 01:43:05;;;;;;;1.88;1.74;;;;;;;6.96;90.39;99487.44;2005888;80;20357;-71
2021/05/27 01:46:07;;;;;;;2.17;1.91;;;;;;;7.02;90.36;99473.78;2005081;78;21620;-71
2021/05/27 01:49:10;;;;;;;2.95;1.64;;;;;;;7.06;90.55;99478.13;2006190;80;20777;-71
2021/05/27 01:52:13;;;;;;;2.17;1.65;;;;;;;7.12;90.67;99494.53;2006555;80;20420;-71
2021/05/27 01:55:16;;;;;;;3.42;1.64;;;;;;;7.19;90.71;99492.91;2006537;80;20968;-71
2021/05/27 01:58:19;;;;;;;2.35;1.54;;;;;;;7.27;90.90;99488.66;2006328;80;20327;-71
2021/05/27 02:01:21;;;;;;;3.21;1.60;;;;;;;7.33;90.97;99486.13;2006243;78;20404;-71
2021/05/27 02:04:24;;;;;;;1.85;1.58;;;;;;;7.40;91.16;99476.75;2007831;80;20339;-72
2021/05/27 02:07:29;;;;;;;2.81;1.56;;;;;;;7.45;91.24;99478.50;2008799;80;20315;-71
2021/05/27 02:10:32;;;;;;;1.65;1.55;;;;;;;7.50;91.29;99478.56;2008267;80;20312;-71
2021/05/27 02:13:35;;;;;;;2.44;1.75;;;;;;;7.57;91.46;99478.63;2011629;80;20374;-72
2021/05/27 02:16:39;;;;;;;2.56;1.48;;;;;;;7.63;91.40;99477.81;2006756;78;20529;-71
2021/05/27 02:19:42;;;;;;;2.66;1.55;;;;;;;7.68;91.25;99483.00;2007649;80;20323;-71
2021/05/27 02:22:44;;;;;;;3.64;2.06;;;;;;;7.71;90.99;99480.44;2008795;80;20356;-71
2021/05/27 02:25:47;;;;;;;4.00;1.75;;;;;;;7.75;90.94;99479.66;2008253;80;20701;-72
2021/05/27 02:28:50;;;;;;;1.86;1.70;;;;;;;7.71;90.76;99485.63;2008345;80;20307;-71
2021/05/27 02:31:53;;;;;;;1.52;1.42;;;;;;;7.71;90.67;99485.63;2007203;78;20794;-71
2021/05/27 02:34:56;;;;;;;2.09;1.70;;;;;;;7.71;90.45;99489.06;2007980;80;20323;-71
2021/05/27 02:37:58;;;;;;;2.56;1.79;;;;;;;7.71;90.35;99483.03;2008318;80;20401;-71
2021/05/27 02:41:02;;;;;;;3.69;1.64;;;;;;;7.70;90.35;99482.16;2008525;80;20361;-71
2021/05/27 02:44:05;;;;;;;2.53;1.85;;;;;;;7.71;90.28;99483.03;2008492;80;20351;-71
2021/05/27 02:47:08;;;;;;;2.79;1.64;;;;;;;7.68;90.22;99481.28;2006839;78;20353;-71
2021/05/27 02:50:11;;;;;;;2.78;1.89;;;;;;;7.68;90.14;99488.19;2008317;80;20315;-71
2021/05/27 02:53:13;;;;;;;3.91;1.41;;;;;;;7.66;89.97;99485.59;2008308;80;20327;-71
2021/05/27 02:56:16;;;;;;;5.25;1.46;;;;;;;7.64;89.72;99478.69;2007987;80;21001;-71
2021/05/27 02:59:19;;;;;;;1.61;1.39;;;;;;;7.61;89.56;99489.00;2008536;80;20412;-71
2021/05/27 03:02:21;;;;;;;1.95;1.40;;;;;;;7.59;89.55;99494.16;2006410;78;21648;-71
2021/05/27 03:05:24;;;;;;;3.00;1.46;;;;;;;7.56;89.56;99497.56;2007261;80;20749;-71
2021/05/27 03:08:28;;;;;;;1.77;1.30;;;;;;;7.51;89.48;99481.16;2010647;80;20524;-71
2021/05/27 03:11:31;;;;;;;1.24;1.19;;;;;;;7.50;89.50;99496.63;2006975;80;20819;-71
2021/05/27 03:14:34;;;;;;;1.56;1.46;;;;;;;7.45;89.46;99483.69;2007128;80;20319;-71
2021/05/27 03:17:36;;;;;;;2.83;1.70;;;;;;;7.46;89.58;99479.38;2005347;78;22188;-71
2021/05/27 03:20:40;;;;;;;2.64;1.48;;;;;;;7.46;89.52;99487.13;2007156;80;20315;-71
2021/05/27 03:23:42;;;;;;;1.90;1.49;;;;;;;7.42;89.36;99485.38;2006651;80;20339;-71
2021/05/27 03:26:46;;;;;;;3.66;1.89;;;;;;;7.42;89.42;99485.38;2006664;80;20331;-71
2021/05/27 03:29:48;;;;;;;1.92;1.69;;;;;;;7.38;89.30;99501.69;2006857;80;20397;-71
2021/05/27 03:32:51;;;;;;;2.50;1.55;;;;;;;7.35;89.25;99499.06;2005967;78;20657;-71
2021/05/27 03:35:54;;;;;;;3.56;1.60;;;;;;;7.32;89.37;99494.72;2006570;80;20428;-71
2021/05/27 03:38:56;;;;;;;3.55;1.45;;;;;;;7.30;89.33;99499.03;2009712;80;20311;-71
2021/05/27 03:41:59;;;;;;;2.45;1.20;;;;;;;7.27;89.29;99494.69;2006968;80;20312;-71
2021/05/27 03:45:07;;;;;;;2.42;1.33;;;;;;;7.27;89.33;99497.28;2006315;80;21106;-71
2021/05/27 03:48:10;;;;;;;1.36;1.16;;;;;;;7.26;89.37;99500.72;2006500;78;20360;-71
2021/05/27 03:51:13;;;;;;;2.91;1.51;;;;;;;7.27;89.47;99502.44;2006953;80;21322;-71
2021/05/27 03:54:16;;;;;;;1.77;1.61;;;;;;;7.30;89.63;99499.03;2007028;80;20971;-71
2021/05/27 03:57:18;;;;;;;1.67;1.20;;;;;;;7.31;89.70;99494.72;2006392;80;20979;-71
2021/05/27 04:00:45;;;;;;;3.10;1.56;;;;;;;7.34;89.91;99499.91;2005312;78;25236;-71
2021/05/27 04:07:12;;;;;;;1.63;1.29;;;;;;;7.43;90.17;99505.19;2005773;80;20381;-71
2021/05/27 04:10:14;;;;;;;1.74;1.34;;;;;;;7.46;90.23;99506.09;2010142;80;20424;-71
2021/05/27 04:13:17;;;;;;;1.36;1.26;;;;;;;7.54;90.43;99509.63;2006126;80;20319;-71
2021/05/27 04:16:20;;;;;;;2.38;1.34;;;;;;;7.55;90.33;99513.94;2005656;78;20385;-71
2021/05/27 04:19:23;;;;;;;2.22;1.25;;;;;;;7.56;90.15;99515.66;2010833;80;20339;-72
2021/05/27 04:22:26;;;;;;;4.95;1.30;;;;;;;7.56;89.94;99513.09;2006617;80;20343;-71
2021/05/27 04:25:29;;;;;;;1.73;1.45;;;;;;;7.55;89.76;99519.09;2006926;80;20865;-71
2021/05/27 04:28:32;;;;;;;1.69;1.34;;;;;;;7.57;89.73;99512.22;2006759;80;20333;-71
2021/05/27 04:31:34;;;;;;;2.34;1.41;;;;;;;7.63;89.76;99510.53;2005684;78;24401;-71
2021/05/27 04:34:37;;;;;;;2.22;1.52;;;;;;;7.66;89.72;99514.00;2006196;80;20440;-72
2021/05/27 04:37:40;;;;;;;3.96;1.69;;;;;;;7.69;89.79;99515.75;2005998;80;20805;-72
2021/05/27 04:40:47;;;;;;;1.96;1.59;;;;;;;7.78;89.84;99513.28;2006640;80;20319;-72
2021/05/27 04:43:57;;;;;;;3.09;1.48;;;;;;;7.92;89.74;99518.56;2006271;80;20381;-71
2021/05/27 04:46:59;;;;;;;2.15;1.50;;;;;;;8.08;89.61;99521.28;2005211;78;36312;-72
2021/05/27 04:50:04;;;;;;;2.69;1.49;;;;;;;8.25;89.55;99515.34;2006020;80;20339;-71
2021/05/27 04:53:08;;;;;;;1.94;1.49;;;;;;;8.44;89.51;99525.00;2006435;80;20882;-72
2021/05/27 04:56:10;;;;;;;4.22;1.44;;;;;;;8.66;89.18;99526.88;2005747;80;20165;-76
2021/05/27 04:59:13;;;;;;;2.15;1.61;;;;;;;8.95;88.54;99528.72;2006718;80;20189;-75
2021/05/27 05:02:16;;;;;;;2.28;1.41;;;;;;;9.34;87.50;99533.19;2004826;78;25933;-75
2021/05/27 05:05:19;;;;;;;1.50;1.40;;;;;;;9.79;85.74;99536.72;2006324;80;20746;-72
2021/05/27 05:08:22;;;;;;;3.71;1.24;;;;;;;10.16;84.25;99535.88;2005724;80;20228;-72
2021/05/27 05:11:25;;;;;;;3.42;1.49;;;;;;;10.48;82.84;99542.78;2006534;80;20240;-72
2021/05/27 05:14:27;;;;;;;2.46;1.34;;;;;;;10.74;81.86;99541.00;2006080;80;21105;-72
2021/05/27 05:17:30;;;;;;;2.45;1.44;;;;;;;11.02;80.68;99548.72;2005355;78;20940;-72
2021/05/27 05:20:35;;;;;;;1.80;1.06;;;;;;;11.29;79.27;99545.13;2007106;80;20282;-73
2021/05/27 05:23:37;;;;;;;2.03;1.30;;;;;;;11.52;78.23;99545.03;2005809;80;20642;-72
2021/05/27 05:26:40;;;;;;;1.96;1.23;;;;;;;11.69;77.49;99540.56;2006137;80;20196;-72
2021/05/27 05:29:43;;;;;;;3.39;1.54;;;;;;;11.82;76.73;99543.97;2005094;80;20223;-73
2021/05/27 05:32:47;;;;;;;2.44;1.30;;;;;;;12.10;75.72;99530.75;2006201;78;20310;-72
2021/05/27 05:35:51;;;;;;;1.50;0.91;;;;;;;12.43;73.76;99540.88;2007662;80;20182;-73
2021/05/27 05:38:54;;;;;;;3.42;1.15;;;;;;;12.48;73.08;99539.94;2006943;80;20189;-72
2021/05/27 05:41:56;;;;;;;2.50;1.13;;;;;;;12.49;73.14;99536.47;2006463;80;20795;-72
2021/05/27 05:45:00;;;;;;;1.56;1.35;;;;;;;13.10;71.33;99535.78;2005305;80;20256;-72
2021/05/27 05:48:04;;;;;;;2.10;0.90;;;;;;;13.51;70.24;99539.66;2004945;78;20422;-73
2021/05/27 05:51:07;;;;;;;2.34;1.10;;;;;;;13.38;69.96;99532.84;2005137;80;20177;-74
2021/05/27 05:54:10;;;;;;;1.69;0.90;;;;;;;13.64;69.21;99537.69;2005467;80;20788;-73
2021/05/27 05:57:13;;;;;;;2.06;1.01;;;;;;;13.52;68.65;99541.38;2005385;80;20258;-72
2021/05/27 06:00:16;;;;;;;1.16;1.00;;;;;;;13.42;69.26;99537.16;2004848;80;20165;-72
2021/05/27 06:03:19;;;;;;;2.80;1.09;;;;;;;13.86;67.56;99540.00;2005827;80;20185;-72
2021/05/27 06:06:22;;;;;;;4.40;1.01;;;;;;;14.19;66.34;99535.13;2006822;80;20610;-72
2021/05/27 06:09:25;;;;;;;1.50;0.90;;;;;;;13.63;67.13;99539.44;2007044;80;20323;-72
2021/05/27 06:12:27;;;;;;;2.25;0.80;;;;;;;13.07;68.69;99548.00;2006836;80;20255;-72
2021/05/27 06:15:30;;;;;;;1.50;0.94;;;;;;;12.78;69.30;99551.81;2005955;78;22480;-72
2021/05/27 06:18:34;;;;;;;3.00;0.98;;;;;;;12.57;70.41;99554.63;2007526;80;20219;-73
2021/05/27 06:21:36;;;;;;;1.24;0.79;;;;;;;12.37;71.00;99546.97;2007374;80;20448;-72
2021/05/27 06:24:39;;;;;;;2.56;0.93;;;;;;;12.23;71.83;99560.16;2007210;80;20177;-72
2021/05/27 06:27:42;;;;;;;3.33;0.80;;;;;;;12.16;72.18;99557.59;2006149;80;20270;-73
2021/05/27 06:30:45;;;;;;;2.33;0.81;;;;;;;12.07;72.08;99556.81;2006559;78;22341;-72
2021/05/27 06:33:49;;;;;;;1.69;0.60;;;;;;;12.03;72.79;99564.66;2006549;80;20202;-72
2021/05/27 06:36:52;;;;;;;2.00;0.80;;;;;;;11.91;73.08;99564.72;2007209;80;20209;-73
2021/05/27 06:39:54;;;;;;;1.41;0.77;;;;;;;11.77;73.33;99563.03;2006749;80;20169;-74
2021/05/27 06:42:58;;;;;;;2.95;0.61;;;;;;;11.74;73.94;99573.47;2006524;80;20278;-73
2021/05/27 06:46:00;;;;;;;2.21;0.70;;;;;;;11.75;73.54;99572.59;2005441;78;20713;-73
2021/05/27 06:49:05;;;;;;;2.41;0.82;;;;;;;11.72;73.33;99576.97;2006389;80;20251;-73
2021/05/27 06:52:07;;;;;;;3.88;0.60;;;;;;;11.97;73.26;99569.88;2006644;80;20219;-73
2021/05/27 06:55:11;;;;;;;1.64;0.81;;;;;;;12.37;72.06;99568.69;2006735;80;20189;-75
2021/05/27 06:58:14;;;;;;;1.49;0.70;;;;;;;12.59;70.39;99566.78;2006399;80;20798;-75
2021/05/27 07:01:16;;;;;;;2.22;0.59;;;;;;;12.84;68.89;99558.69;2005987;78;20173;-74
2021/05/27 07:04:19;;;;;;;1.42;0.61;;;;;;;13.17;66.62;99573.94;2006320;80;21206;-74
2021/05/27 07:07:24;;;;;;;1.84;0.52;;;;;;;13.60;65.23;99571.66;2006730;80;20726;-71
2021/05/27 07:10:31;;;;;;;1.92;0.66;;;;;;;14.09;64.82;99572.69;2006916;80;20775;-71
2021/05/27 07:13:34;;;;;;;2.88;0.61;;;;;;;14.52;62.82;99575.47;2007116;80;20174;-71
2021/05/27 07:16:39;;;;;;;4.70;0.90;;;;;;;14.86;61.95;99582.72;2005986;78;20219;-73
2021/05/27 07:19:42;;;;;;;1.92;0.77;;;;;;;15.14;60.13;99575.22;2006865;80;20587;-72
2021/05/27 07:22:45;;;;;;;2.10;0.70;;;;;;;15.28;58.47;99599.34;2007106;80;20574;-73
2021/05/27 07:25:48;;;;;;;2.06;0.70;;;;;;;15.23;58.58;99588.09;2007447;80;20570;-73
2021/05/27 07:28:50;;;;;;;2.76;0.80;;;;;;;15.08;58.81;99590.16;2006920;80;20198;-73
2021/05/27 07:31:53;;;;;;;3.24;1.00;;;;;;;14.87;58.96;99593.16;2006337;78;21216;-72
2021/05/27 07:34:56;;;;;;;2.88;0.63;;;;;;;14.62;59.84;99599.72;2006808;80;20177;-72
2021/05/27 07:37:59;;;;;;;2.65;0.75;;;;;;;14.36;60.74;99598.38;2007113;80;20541;-72
2021/05/27 07:41:04;;;;;;;2.05;0.69;;;;;;;14.28;60.39;99602.84;2006463;80;20214;-73
2021/05/27 07:44:07;;;;;;;3.14;0.76;;;;;;;14.18;60.30;99602.16;2006714;80;20242;-73
2021/05/27 07:47:10;;;;;;;6.09;0.79;;;;;;;14.06;61.58;99606.69;2004827;78;20651;-72
2021/05/27 07:50:12;;;;;;;1.06;0.70;;;;;;;13.96;61.00;99603.34;2005891;80;20205;-73
2021/05/27 07:53:19;;;;;;;1.40;0.59;;;;;;;13.80;60.94;99607.06;2006847;80;20173;-73
2021/05/27 07:56:22;;;;;;;1.42;0.59;;;;;;;13.70;61.52;99602.88;2006339;80;20181;-73
2021/05/27 07:59:28;;;;;;;2.29;0.70;;;;;;;13.66;61.47;99607.28;2010473;80;20173;-73
2021/05/27 08:02:31;;;;;;;2.61;0.80;;;;;;;13.69;61.57;99606.38;2005538;78;21991;-73
2021/05/27 08:05:35;;;;;;;4.90;0.70;;;;;;;13.80;62.32;99607.91;2006426;80;20700;-73
2021/05/27 08:08:38;;;;;;;1.88;0.60;;;;;;;13.90;60.57;99612.13;2007233;80;20193;-74
2021/05/27 08:11:41;;;;;;;3.95;0.82;;;;;;;14.01;59.94;99611.13;2006899;80;20624;-74
2021/05/27 08:14:45;;;;;;;3.17;0.70;;;;;;;14.04;60.29;99614.56;2006486;80;20289;-74
2021/05/27 08:17:47;;;;;;;1.51;0.50;;;;;;;14.06;60.74;99618.00;2005604;78;24418;-74
2021/05/27 08:20:50;;;;;;;3.66;0.66;;;;;;;14.32;61.42;99625.44;2005903;80;20318;-73
2021/05/27 08:23:53;;;;;;;0.84;0.54;;;;;;;14.37;60.11;99621.00;2006628;80;20176;-74
2021/05/27 08:26:56;;;;;;;1.48;0.64;;;;;;;14.45;59.56;99616.53;2005744;80;20181;-74
2021/05/27 08:30:00;;;;;;;4.15;0.70;;;;;;;14.38;59.97;99619.25;2006487;80;20177;-74
2021/05/27 08:33:02;;;;;;;3.41;0.93;;;;;;;14.32;60.31;99627.19;2006524;78;20674;-73
2021/05/27 08:36:06;;;;;;;2.06;0.69;;;;;;;14.13;60.98;99630.06;2006128;80;20273;-72
2021/05/27 08:39:09;;;;;;;5.76;0.61;;;;;;;13.94;61.72;99631.22;2006193;80;20177;-73
2021/05/27 08:42:12;;;;;;;1.29;0.54;;;;;;;13.79;62.81;99636.66;2006585;80;20232;-75
2021/05/27 08:45:16;;;;;;;3.38;0.50;;;;;;;13.67;63.37;99634.22;2005923;80;20195;-75
2021/05/27 08:48:19;;;;;;;2.76;0.50;;;;;;;13.58;63.04;99633.44;2005163;78;20217;-75
2021/05/27 08:51:22;;;;;;;1.60;0.59;;;;;;;13.63;62.20;99635.13;2006050;80;20234;-75
2021/05/27 08:54:24;;;;;;;1.69;0.50;;;;;;;13.64;62.47;99645.53;2005542;80;20165;-75
2021/05/27 08:57:27;;;;;;;3.38;0.47;;;;;;;13.57;61.56;99644.75;2005699;80;20210;-75
2021/05/27 09:00:30;;;;;;;2.96;0.60;;;;;;;13.63;61.71;99656.00;2005221;78;20995;-75
2021/05/27 09:03:44;;;;;;;1.96;0.50;;;;;;;13.77;62.28;99648.88;2006075;80;20200;-73
2021/05/27 09:06:50;;;;;;;2.29;0.60;;;;;;;13.94;61.37;99653.88;2006483;80;20187;-73
2021/05/27 09:09:58;;;;;;;1.58;0.60;;;;;;;14.16;60.61;99655.28;2006153;80;20207;-75
2021/05/27 09:13:14;;;;;;;3.97;0.70;;;;;;;14.45;61.14;99660.09;2004828;80;20173;-75
2021/05/27 09:16:18;;;;;;;2.04;0.69;;;;;;;14.64;60.67;99658.06;2004467;78;22300;-76
2021/05/27 09:19:21;;;;;;;2.21;0.64;;;;;;;14.67;60.64;99664.09;2006185;80;20173;-76
2021/05/27 09:22:23;;;;;;;2.09;0.70;;;;;;;14.71;60.65;99662.28;2006379;80;20220;-76
2021/05/27 09:25:28;;;;;;;2.31;0.70;;;;;;;14.73;59.73;99668.38;2006376;80;20555;-76
2021/05/27 09:28:31;;;;;;;3.21;0.81;;;;;;;14.66;60.51;99661.50;2006548;80;20235;-75
2021/05/27 09:31:34;;;;;;;2.19;0.52;;;;;;;14.57;61.63;99666.88;2005315;78;22612;-75
2021/05/27 09:34:41;;;;;;;3.64;0.74;;;;;;;14.41;60.76;99663.63;2006423;80;20199;-75
2021/05/27 09:37:51;;;;;;;1.74;0.59;;;;;;;14.32;60.11;99656.78;2006293;80;20266;-75
2021/05/27 09:40:54;;;;;;;2.55;0.80;;;;;;;14.40;60.93;99665.38;2006077;80;20191;-76
2021/05/27 09:44:02;;;;;;;1.16;0.63;;;;;;;14.69;61.98;99672.75;2005335;80;20199;-75
2021/05/27 09:47:06;;;;;;;1.45;0.70;;;;;;;14.94;61.60;99664.50;2005348;78;22982;-76
2021/05/27 09:50:09;;;;;;;2.63;0.80;;;;;;;15.17;60.35;99667.56;2006358;80;20460;-76
2021/05/27 09:53:14;;;;;;;1.40;0.71;;;;;;;15.30;59.03;99668.22;2006064;80;20185;-75
2021/05/27 09:56:40;;;;;;;2.26;0.70;;;;;;;15.37;58.01;99668.03;2006011;80;20188;-75
2021/05/27 09:59:44;;;;;;;2.01;0.74;;;;;;;15.39;58.81;99675.88;2006237;80;20376;-75
2021/05/27 10:02:46;;;;;;;1.95;0.70;;;;;;;15.34;58.52;99669.88;2005427;78;24301;-75
2021/05/27 10:05:50;;;;;;;3.46;0.75;;;;;;;15.22;58.66;99673.56;2006738;80;20234;-75
2021/05/27 10:08:56;;;;;;;3.86;0.88;;;;;;;15.11;59.32;99671.16;2005844;80;20825;-75
2021/05/27 10:11:59;;;;;;;4.03;0.75;;;;;;;15.07;59.66;99666.00;2006051;80;20173;-75
2021/05/27 10:15:03;;;;;;;4.49;0.60;;;;;;;14.95;58.81;99667.09;2005703;80;20688;-75
2021/05/27 10:18:06;;;;;;;3.40;0.79;;;;;;;14.84;59.51;99676.88;2006662;78;23232;-74
2021/05/27 10:21:10;;;;;;;2.53;0.73;;;;;;;14.63;58.85;99670.25;2007186;80;20234;-76
2021/05/27 10:24:13;;;;;;;1.71;0.60;;;;;;;14.52;60.70;99673.03;2007522;80;20244;-76
2021/05/27 10:27:16;;;;;;;2.01;0.80;;;;;;;14.40;62.01;99677.56;2007690;80;20204;-76
2021/05/27 10:30:20;;;;;;;1.83;0.80;;;;;;;14.34;61.68;99670.66;2007045;80;20231;-75
2021/05/27 10:33:24;;;;;;;2.28;0.77;;;;;;;14.51;61.85;99675.66;2007615;80;20173;-74
2021/05/27 10:36:42;;;;;;;6.21;0.89;;;;;;;14.76;60.55;99674.41;2006752;80;20234;-74
2021/05/27 10:39:45;;;;;;;2.90;0.88;;;;;;;14.86;59.57;99677.69;2007379;80;20157;-75
2021/05/27 10:42:56;;;;;;;1.63;0.70;;;;;;;15.07;59.47;99676.47;2006543;80;20185;-75
2021/05/27 10:45:59;;;;;;;1.84;0.57;;;;;;;15.20;58.15;99677.97;2006339;78;21116;-75
2021/05/27 10:49:02;;;;;;;1.67;0.60;;;;;;;15.37;58.66;99673.28;2006574;80;20197;-75
2021/05/27 10:52:27;;;;;;;1.39;0.54;;;;;;;15.53;58.50;99673.84;2006349;80;20177;-74
2021/05/27 10:55:55;;;;;;;1.48;0.60;;;;;;;15.71;57.44;99676.13;2006350;80;20225;-76
2021/05/27 10:58:57;;;;;;;0.60;0.50;;;;;;;15.83;55.98;99667.16;2007522;80;20177;-74
2021/05/27 11:02:01;;;;;;;2.40;0.69;;;;;;;16.16;54.79;99660.31;2006040;78;21407;-74
2021/05/27 11:05:21;;;;;;;1.23;0.70;;;;;;;16.60;55.38;99661.88;2007239;80;20181;-73
2021/05/27 11:08:25;;;;;;;2.41;0.68;;;;;;;16.62;54.05;99654.81;2006273;80;20189;-75
2021/05/27 11:11:45;;;;;;;1.55;0.61;;;;;;;16.70;53.14;99659.94;2007277;80;20173;-76
2021/05/27 11:14:50;;;;;;;1.02;0.50;;;;;;;17.28;52.57;99647.91;2007545;80;20687;-75
2021/05/27 11:18:04;;;;;;;2.50;0.50;;;;;;;17.42;51.56;99658.88;2005990;78;20635;-76
2021/05/27 11:21:35;;;;;;;1.35;0.50;;;;;;;17.32;51.72;99662.66;2007102;80;20185;-75
2021/05/27 11:24:40;;;;;;;2.15;0.43;;;;;;;17.15;51.65;99657.88;2006015;80;20234;-75
2021/05/27 11:27:53;;;;;;;2.59;0.40;;;;;;;17.22;51.63;99654.16;2006362;80;20928;-75
2021/05/27 11:30:57;;;;;;;2.21;0.40;;;;;;;17.41;50.09;99648.41;2007201;78;21751;-76
2021/05/27 11:34:04;;;;;;;1.40;0.40;;;;;;;17.66;51.38;99648.59;2007499;80;20262;-76
2021/05/27 11:37:07;;;;;;;1.60;0.30;;;;;;;17.73;48.82;99651.00;2006671;80;20296;-76
2021/05/27 11:40:12;;;;;;;1.64;0.38;;;;;;;17.44;48.84;99640.47;2006734;80;20216;-76
2021/05/27 11:43:16;;;;;;;0.76;0.30;;;;;;;17.13;49.06;99645.69;2007113;80;20616;-76
2021/05/27 11:46:22;;;;;;;1.17;0.30;;;;;;;16.93;49.31;99638.34;2005455;78;21326;-77
2021/05/27 11:49:25;;;;;;;1.58;0.30;;;;;;;16.74;51.32;99644.97;2006756;80;20195;-77
2021/05/27 11:52:27;;;;;;;1.01;0.40;;;;;;;16.50;50.56;99643.78;2006825;80;20192;-76
2021/05/27 11:55:31;;;;;;;1.19;0.40;;;;;;;16.25;50.15;99633.03;2007276;80;20196;-76
2021/05/27 11:58:37;;;;;;;1.50;0.32;;;;;;;15.99;52.97;99644.13;2006872;80;20910;-76
2021/05/27 12:01:41;;;;;;;1.13;0.39;;;;;;;15.73;54.02;99644.66;2006544;78;22384;-76
2021/05/27 12:04:44;;;;;;;0.61;0.30;;;;;;;15.48;55.38;99649.53;2007381;80;20177;-76
2021/05/27 12:08:04;;;;;;;1.88;0.30;;;;;;;15.28;55.35;99646.44;2006800;80;20168;-74
2021/05/27 12:11:07;;;;;;;2.95;0.32;;;;;;;15.24;56.93;99644.75;2006523;80;20169;-76
2021/05/27 12:14:10;;;;;;;2.39;0.40;;;;;;;15.29;55.61;99650.78;2006179;80;20575;-75
2021/05/27 12:17:21;;;;;;;0.43;0.40;;;;;;;15.46;56.47;99640.84;2005247;78;20823;-75
2021/05/27 12:20:30;;;;;;;1.55;0.43;;;;;;;15.68;55.17;99644.78;2006436;80;20190;-75
2021/05/27 12:26:49;;;;;;;0.90;0.40;;;;;;;15.90;53.98;99642.56;2006356;70;20307;-76
2021/05/27 12:29:52;;;;;;;2.30;0.39;;;;;;;16.09;53.90;99639.53;2006777;80;20204;-76
2021/05/27 12:32:56;;;;;;;1.51;0.40;;;;;;;16.32;54.02;99634.59;2005292;78;20540;-77
2021/05/27 12:36:10;;;;;;;0.52;0.39;;;;;;;16.69;53.16;99631.09;2006820;80;20201;-77
2021/05/27 12:39:13;;;;;;;2.14;0.40;;;;;;;17.34;52.55;99647.72;2006692;80;20559;-77
2021/05/27 12:42:15;;;;;;;2.51;0.40;;;;;;;17.87;50.10;99639.22;2007679;80;20825;-77
2021/05/27 12:45:25;;;;;;;2.79;0.31;;;;;;;17.88;48.71;99643.59;2005918;80;20212;-76
2021/05/27 12:48:31;;;;;;;0.69;0.40;;;;;;;17.68;46.98;99644.19;2007949;80;20399;-77
2021/05/27 12:51:38;;;;;;;0.57;0.36;;;;;;;17.49;50.17;99642.03;2006894;80;20165;-76
2021/05/27 12:54:41;;;;;;;3.34;0.40;;;;;;;17.47;50.78;99643.84;2007549;80;20211;-75
2021/05/27 12:57:55;;;;;;;1.51;0.43;;;;;;;17.55;51.54;99643.63;2006193;80;21062;-74
2021/05/27 13:01:00;;;;;;;0.94;0.30;;;;;;;17.65;51.81;99649.50;2006197;78;21272;-74
2021/05/27 13:04:31;;;;;;;0.46;0.30;;;;;;;17.66;51.07;99652.06;2012449;80;20172;-75
2021/05/27 13:07:35;;;;;;;0.64;0.30;;;;;;;17.58;48.58;99637.41;2011804;80;20188;-74
2021/05/27 13:10:40;;;;;;;0.85;0.30;;;;;;;17.55;48.93;99642.75;2011738;80;20268;-75
2021/05/27 13:13:43;;;;;;;1.05;0.30;;;;;;;17.40;48.50;99647.53;2011995;80;20627;-74
2021/05/27 13:16:50;;;;;;;2.08;0.40;;;;;;;17.19;50.10;99648.13;2007260;78;23695;-74
2021/05/27 13:19:57;;;;;;;0.82;0.30;;;;;;;16.95;51.59;99643.56;2006817;80;20220;-78
2021/05/27 13:26:21;;;;;;;1.98;0.93;;;;;;;16.72;53.09;99641.53;2045846;69;20286;-77
2021/05/27 13:29:23;;;;;;;0.66;0.30;;;;;;;16.67;55.39;99656.50;2012127;80;20647;-77
2021/05/27 13:32:40;;;;;;;2.49;0.39;;;;;;;16.61;56.84;99652.25;2010513;80;25733;-74
2021/05/27 13:35:52;;;;;;;0.54;0.30;;;;;;;16.99;56.97;99658.31;2006174;80;20173;-75
2021/05/27 13:38:54;;;;;;;1.27;0.20;;;;;;;17.65;53.45;99650.34;2006305;80;20261;-75
2021/05/27 13:41:57;;;;;;;1.33;0.40;;;;;;;18.36;52.64;99649.09;2007167;80;20650;-75
2021/05/27 13:45:16;;;;;;;1.04;0.22;;;;;;;18.72;51.20;99644.44;2006618;80;20169;-74
2021/05/27 13:48:19;;;;;;;0.91;0.40;;;;;;;18.82;50.35;99640.56;2001290;81;23060;-75
2021/05/27 13:51:22;;;;;;;0.46;0.30;;;;;;;18.58;48.11;99650.13;2001368;81;20253;-74
2021/05/27 13:54:24;;;;;;;0.68;0.28;;;;;;;18.38;48.07;99648.13;2001471;80;20299;-75
2021/05/27 13:57:27;;;;;;;3.79;0.40;;;;;;;17.93;47.63;99653.03;2002244;81;20195;-74
2021/05/27 14:00:30;;;;;;;2.38;0.32;;;;;;;17.59;48.75;99649.66;2000350;78;22628;-74
2021/05/27 14:03:52;;;;;;;1.92;0.35;;;;;;;17.40;50.50;99651.94;2005128;80;20667;-75
2021/05/27 14:06:55;;;;;;;0.50;0.30;;;;;;;17.26;50.80;99654.97;2007386;80;20179;-74
2021/05/27 14:09:58;;;;;;;0.56;0.30;;;;;;;17.18;51.70;99670.03;2005485;80;20751;-75
2021/05/27 14:13:05;;;;;;;0.51;0.30;;;;;;;16.99;51.54;99671.44;2009365;80;20363;-75
2021/05/27 14:16:08;;;;;;;3.86;0.40;;;;;;;16.71;53.81;99681.78;2005603;78;46183;-75
2021/05/27 14:19:10;;;;;;;0.99;0.40;;;;;;;16.46;55.41;99694.56;2005360;80;20169;-76
2021/05/27 14:22:13;;;;;;;1.99;0.60;;;;;;;16.17;57.79;99713.59;2004701;80;20189;-80
2021/05/27 14:25:16;;;;;;;0.98;0.50;;;;;;;15.83;61.39;99722.16;2099683;70;21135;-79
2021/05/27 14:28:19;;;;;;;0.99;0.50;;;;;;;15.45;63.88;99711.53;2010003;80;20172;-73
2021/05/27 14:31:22;;;;;;;2.41;0.54;;;;;;;15.29;66.22;99710.97;2008909;78;23386;-73
2021/05/27 14:34:24;;;;;;;1.15;0.50;;;;;;;15.24;68.60;99705.78;2011943;80;20741;-72
2021/05/27 14:37:27;;;;;;;1.65;0.40;;;;;;;15.13;68.80;99701.66;2012037;80;20229;-72
2021/05/27 14:40:29;;;;;;;3.36;0.70;;;;;;;15.11;69.17;99697.31;2009280;80;20303;-72
2021/05/27 14:43:32;;;;;;;2.72;0.60;;;;;;;15.29;71.90;99703.97;2009747;80;20912;-72